Time;durP1;ratioP1;P1;durP2;ratioP2;P2;SDS_P1;SDS_P2;PMS_P1;PMS_P2;Temp;Humidity;BMP_temperature;BMP_pressure;BME280_temperature;BME280_humidity;BME280_pressure;Samples;Min_cycle;Max_cycle;Signal;HPM_P1;HPM_P2
2023/08/25 00:01:20;0.00;0.00;0.62;0.00;0.00;0.62;3.67;3.17;;;33.40;28.70;;;;;;2264549;61;20423;-55
2023/08/25 00:04:04;0.00;0.00;0.62;0.00;0.00;0.62;2.73;2.50;;;33.40;28.70;;;;;;2263966;61;20915;-50
2023/08/25 00:06:50;0.00;0.00;0.62;0.00;0.00;0.62;2.93;2.63;;;33.40;28.70;;;;;;2264667;61;20399;-55
2023/08/25 00:09:35;0.00;0.00;0.62;0.00;0.00;0.62;3.47;2.67;;;33.40;28.70;;;;;;2264688;61;20387;-51
2023/08/25 00:12:20;0.00;0.00;0.62;0.00;0.00;0.62;2.70;2.50;;;33.40;28.70;;;;;;2264402;61;20394;-52
2023/08/25 00:15:07;0.00;0.00;0.62;0.00;0.00;0.62;3.03;2.50;;;33.40;28.70;;;;;;2264151;61;20376;-51
2023/08/25 00:17:54;0.00;0.00;0.62;0.00;0.00;0.62;3.20;2.90;;;33.40;28.70;;;;;;2264136;61;20372;-53
2023/08/25 00:20:40;0.00;0.00;0.62;0.00;0.00;0.62;3.67;2.33;;;33.40;28.70;;;;;;2264549;61;21000;-56
2023/08/25 00:23:26;0.00;0.00;0.62;0.00;0.00;0.62;2.80;2.10;;;33.40;28.70;;;;;;2264399;61;20963;-54
2023/08/25 00:26:11;0.00;0.00;0.62;0.00;0.00;0.62;3.70;2.50;;;33.40;28.70;;;;;;2264104;61;20380;-51
2023/08/25 00:28:55;0.00;0.00;0.62;0.00;0.00;0.62;2.40;2.20;;;33.40;28.70;;;;;;2264471;61;20894;-57
2023/08/25 00:31:40;0.00;0.00;0.62;0.00;0.00;0.62;2.40;1.87;;;33.40;28.70;;;;;;2264889;61;20353;-57
2023/08/25 00:34:25;0.00;0.00;0.62;0.00;0.00;0.62;2.63;2.20;;;33.40;28.70;;;;;;2263734;61;20384;-56
2023/08/25 00:37:09;0.00;0.00;0.62;0.00;0.00;0.62;2.73;2.20;;;33.40;28.70;;;;;;2264718;61;20780;-56
2023/08/25 00:39:55;0.00;0.00;0.62;0.00;0.00;0.62;2.97;2.40;;;33.40;28.70;;;;;;2264307;61;20786;-54
2023/08/25 00:42:40;0.00;0.00;0.62;0.00;0.00;0.62;3.03;2.43;;;33.40;28.70;;;;;;2264573;61;20372;-53
2023/08/25 00:45:25;0.00;0.00;0.62;0.00;0.00;0.62;2.50;2.03;;;33.40;28.70;;;;;;2264395;61;20396;-54
2023/08/25 00:48:10;0.00;0.00;0.62;0.00;0.00;0.62;2.90;2.37;;;33.40;28.70;;;;;;2263884;61;20360;-55
2023/08/25 00:50:55;0.00;0.00;0.62;0.00;0.00;0.62;2.63;2.17;;;33.40;28.70;;;;;;2264380;61;20402;-51
2023/08/25 00:53:41;0.00;0.00;0.62;0.00;0.00;0.62;2.60;2.17;;;33.40;28.70;;;;;;2264261;61;20552;-55
2023/08/25 00:56:27;0.00;0.00;0.62;0.00;0.00;0.62;3.13;2.37;;;33.40;28.70;;;;;;2263496;61;20388;-51
2023/08/25 00:59:12;0.00;0.00;0.62;0.00;0.00;0.62;1.87;1.57;;;33.30;28.60;;;;;;2263873;61;20406;-54
2023/08/25 01:01:57;0.00;0.00;0.62;0.00;0.00;0.62;2.80;1.90;;;33.30;28.60;;;;;;2264058;61;20380;-55
2023/08/25 01:04:42;0.00;0.00;0.62;0.00;0.00;0.62;2.97;1.80;;;33.30;28.60;;;;;;2264013;61;20376;-57
2023/08/25 01:07:27;0.00;0.00;0.62;0.00;0.00;0.62;3.03;2.20;;;33.30;28.60;;;;;;2264905;61;20472;-55
2023/08/25 01:10:12;0.00;0.00;0.62;0.00;0.00;0.62;2.27;1.80;;;33.30;28.60;;;;;;2264114;61;20360;-55
2023/08/25 01:13:10;0.00;0.00;0.62;0.00;0.00;0.62;2.60;2.20;;;33.30;28.60;;;;;;2264775;61;20364;-55
2023/08/25 01:15:55;0.00;0.00;0.62;0.00;0.00;0.62;2.70;1.90;;;33.30;28.60;;;;;;2264688;61;20832;-54
2023/08/25 01:18:41;0.00;0.00;0.62;0.00;0.00;0.62;2.43;2.07;;;33.30;28.60;;;;;;2260859;61;20467;-53
2023/08/25 01:21:26;0.00;0.00;0.62;0.00;0.00;0.62;3.03;1.83;;;33.30;28.60;;;;;;2264608;61;20800;-55
2023/08/25 01:24:19;0.00;0.00;0.62;0.00;0.00;0.62;2.77;2.17;;;33.30;28.60;;;;;;2263414;61;20364;-55
2023/08/25 01:27:06;0.00;0.00;0.62;0.00;0.00;0.62;2.60;1.83;;;33.30;28.60;;;;;;2264872;61;20453;-65
2023/08/25 01:29:51;0.00;0.00;0.62;0.00;0.00;0.62;3.10;2.50;;;33.30;28.60;;;;;;2263870;61;20435;-49
2023/08/25 01:32:37;0.00;0.00;0.62;0.00;0.00;0.62;2.33;1.70;;;33.30;28.60;;;;;;2259286;61;20407;-61
2023/08/25 01:35:31;0.00;0.00;0.62;0.00;0.00;0.62;2.53;1.90;;;33.20;28.50;;;;;;2258373;61;20881;-61
2023/08/25 01:38:24;0.00;0.00;0.62;0.00;0.00;0.62;2.67;1.90;;;33.20;28.60;;;;;;2264548;61;20944;-56
2023/08/25 01:41:16;0.00;0.00;0.62;0.00;0.00;0.62;2.90;2.27;;;33.20;28.60;;;;;;2264422;61;20901;-54
2023/08/25 01:44:04;0.00;0.00;0.62;0.00;0.00;0.62;2.30;1.80;;;33.20;28.60;;;;;;2263861;61;20451;-54
2023/08/25 01:46:54;0.00;0.00;0.62;0.00;0.00;0.62;2.57;1.90;;;33.20;28.60;;;;;;2263657;61;20676;-55
2023/08/25 01:49:40;0.00;0.00;0.62;0.00;0.00;0.62;2.90;2.10;;;33.20;28.60;;;;;;2264660;61;20356;-56
2023/08/25 01:52:25;0.00;0.00;0.62;0.00;0.00;0.62;2.67;2.20;;;33.20;28.60;;;;;;2264289;61;20734;-55
2023/08/25 01:55:10;0.00;0.00;0.62;0.00;0.00;0.62;2.67;2.13;;;33.20;28.60;;;;;;2263824;61;20384;-55
2023/08/25 01:57:55;0.00;0.00;0.62;0.00;0.00;0.62;2.93;2.20;;;33.20;28.70;;;;;;2264251;61;20395;-52
2023/08/25 02:00:42;0.00;0.00;0.62;0.00;0.00;0.62;2.70;2.07;;;33.20;28.70;;;;;;2264308;61;20378;-53
2023/08/25 02:03:27;0.00;0.00;0.62;0.00;0.00;0.62;3.50;1.97;;;33.20;28.70;;;;;;2264309;61;20399;-55
2023/08/25 02:06:12;0.00;0.00;0.62;0.00;0.00;0.62;3.50;2.30;;;33.20;28.70;;;;;;2264000;61;20431;-56
2023/08/25 02:08:56;0.00;0.00;0.62;0.00;0.00;0.62;2.30;2.10;;;33.20;28.70;;;;;;2264372;61;20466;-64
2023/08/25 02:11:41;0.00;0.00;0.62;0.00;0.00;0.62;2.87;1.93;;;33.20;28.70;;;;;;2264283;61;20379;-56
2023/08/25 02:14:36;0.00;0.00;0.62;0.00;0.00;0.62;2.30;1.90;;;33.20;28.70;;;;;;2264539;61;20857;-56
2023/08/25 02:17:22;0.00;0.00;0.62;0.00;0.00;0.62;2.13;1.83;;;33.20;28.80;;;;;;2264297;61;20414;-53
2023/08/25 02:20:08;0.00;0.00;0.62;0.00;0.00;0.62;2.10;1.90;;;33.20;28.70;;;;;;2264173;61;20966;-54
2023/08/25 02:22:53;0.00;0.00;0.62;0.00;0.00;0.62;2.57;2.00;;;33.20;28.80;;;;;;2264271;61;20384;-57
2023/08/25 02:25:38;0.00;0.00;0.62;0.00;0.00;0.62;2.47;2.10;;;33.20;28.80;;;;;;2264577;61;20391;-52
2023/08/25 02:28:23;0.00;0.00;0.62;0.00;0.00;0.62;2.60;2.00;;;33.20;28.80;;;;;;2264199;61;20368;-54
2023/08/25 02:31:08;0.00;0.00;0.62;0.00;0.00;0.62;2.47;2.17;;;33.20;28.80;;;;;;2264019;61;20790;-56
2023/08/25 02:33:54;0.00;0.00;0.62;0.00;0.00;0.62;3.00;2.00;;;33.20;28.80;;;;;;2263832;61;20360;-52
2023/08/25 02:36:39;0.00;0.00;0.62;0.00;0.00;0.62;2.90;2.10;;;33.20;28.80;;;;;;2264623;61;20371;-56
2023/08/25 02:39:23;0.00;0.00;0.62;0.00;0.00;0.62;2.37;1.90;;;33.10;28.70;;;;;;2264080;61;20364;-55
2023/08/25 02:42:08;0.00;0.00;0.62;0.00;0.00;0.62;2.67;1.80;;;33.10;28.70;;;;;;2264671;61;20356;-55
2023/08/25 02:44:55;0.00;0.00;0.62;0.00;0.00;0.62;2.37;1.63;;;33.10;28.70;;;;;;2263838;61;20388;-54
2023/08/25 02:47:39;0.00;0.00;0.62;0.00;0.00;0.62;3.00;2.20;;;33.10;28.70;;;;;;2264228;61;20368;-56
2023/08/25 02:50:26;0.00;0.00;0.62;0.00;0.00;0.62;2.77;2.20;;;33.10;28.80;;;;;;2264155;61;20705;-53
2023/08/25 02:53:11;0.00;0.00;0.62;0.00;0.00;0.62;3.30;2.13;;;33.10;28.80;;;;;;2263703;61;20392;-55
2023/08/25 02:55:56;0.00;0.00;0.62;0.00;0.00;0.62;3.70;1.90;;;33.10;28.80;;;;;;2263896;61;20380;-55
2023/08/25 02:58:42;0.00;0.00;0.62;0.00;0.00;0.62;3.00;2.10;;;33.10;28.80;;;;;;2263942;61;20368;-55
2023/08/25 03:01:30;0.00;0.00;0.62;0.00;0.00;0.62;2.40;2.00;;;33.10;28.80;;;;;;2263666;61;20415;-55
2023/08/25 03:04:14;0.00;0.00;0.62;0.00;0.00;0.62;2.97;1.70;;;33.10;28.80;;;;;;2262763;61;20369;-56
2023/08/25 03:07:01;0.00;0.00;0.62;0.00;0.00;0.62;3.00;2.13;;;33.10;28.80;;;;;;2263975;61;20384;-56
2023/08/25 03:09:45;0.00;0.00;0.62;0.00;0.00;0.62;2.90;2.17;;;33.10;28.80;;;;;;2263860;61;20355;-57
2023/08/25 03:12:30;0.00;0.00;0.62;0.00;0.00;0.62;2.40;2.00;;;33.10;28.80;;;;;;2264621;61;20811;-57
2023/08/25 03:15:15;0.00;0.00;0.62;0.00;0.00;0.62;2.10;1.70;;;33.10;28.80;;;;;;2263882;61;20384;-60
2023/08/25 03:18:00;0.00;0.00;0.62;0.00;0.00;0.62;2.50;2.10;;;33.10;29.40;;;;;;2264041;61;20463;-53
2023/08/25 03:20:51;0.00;0.00;0.62;0.00;0.00;0.62;2.63;1.80;;;33.10;28.80;;;;;;2264005;61;20380;-57
2023/08/25 03:23:37;0.00;0.00;0.62;0.00;0.00;0.62;3.17;2.23;;;33.10;28.90;;;;;;2263885;61;20498;-54
2023/08/25 03:26:22;0.00;0.00;0.62;0.00;0.00;0.62;3.30;2.00;;;33.10;28.80;;;;;;2264253;61;20498;-55
2023/08/25 03:29:07;0.00;0.00;0.62;0.00;0.00;0.62;2.63;1.93;;;33.10;28.90;;;;;;2263828;61;20415;-55
2023/08/25 03:31:53;0.00;0.00;0.62;0.00;0.00;0.62;3.43;2.33;;;33.10;28.90;;;;;;2263556;61;20458;-55
2023/08/25 03:34:37;0.00;0.00;0.62;0.00;0.00;0.62;2.10;1.90;;;33.00;28.80;;;;;;2263956;61;20391;-57
2023/08/25 03:37:22;0.00;0.00;0.62;0.00;0.00;0.62;3.10;2.00;;;33.00;28.80;;;;;;2263458;61;20458;-56
2023/08/25 03:40:10;0.00;0.00;0.62;0.00;0.00;0.62;3.30;2.63;;;33.00;28.80;;;;;;2263799;61;20391;-57
2023/08/25 03:42:55;0.00;0.00;0.62;0.00;0.00;0.62;3.40;2.57;;;33.00;28.90;;;;;;2264001;61;20372;-53
2023/08/25 03:45:39;0.00;0.00;0.62;0.00;0.00;0.62;2.97;1.97;;;33.00;28.90;;;;;;2263640;61;20411;-57
2023/08/25 03:48:25;0.00;0.00;0.62;0.00;0.00;0.62;3.40;2.00;;;33.00;28.90;;;;;;2264249;61;20426;-56
2023/08/25 03:51:11;0.00;0.00;0.62;0.00;0.00;0.62;2.93;2.13;;;33.00;28.90;;;;;;2263985;61;20406;-55
2023/08/25 03:53:56;0.00;0.00;0.62;0.00;0.00;0.62;2.20;1.70;;;33.00;28.90;;;;;;2263103;61;20367;-54
2023/08/25 03:56:42;0.00;0.00;0.62;0.00;0.00;0.62;2.80;1.90;;;33.00;28.90;;;;;;2263358;61;20925;-49
2023/08/25 03:59:30;0.00;0.00;0.62;0.00;0.00;0.62;2.73;2.20;;;33.00;28.90;;;;;;2263806;61;20805;-55
2023/08/25 04:02:14;0.00;0.00;0.62;0.00;0.00;0.62;2.40;2.00;;;33.00;28.90;;;;;;2263408;61;20357;-51
2023/08/25 04:04:59;0.00;0.00;0.62;0.00;0.00;0.62;4.30;1.90;;;33.00;28.90;;;;;;2263163;61;20426;-57
2023/08/25 04:07:43;0.00;0.00;0.62;0.00;0.00;0.62;3.00;1.77;;;33.00;28.90;;;;;;2263920;61;20456;-54
2023/08/25 04:10:29;0.00;0.00;0.62;0.00;0.00;0.62;2.23;1.70;;;32.90;28.80;;;;;;2264054;61;20356;-56
2023/08/25 04:13:15;0.00;0.00;0.62;0.00;0.00;0.62;2.47;2.00;;;32.90;28.80;;;;;;2263613;61;20383;-55
2023/08/25 04:16:01;0.00;0.00;0.62;0.00;0.00;0.62;2.77;1.87;;;32.90;28.80;;;;;;2263582;61;20418;-58
2023/08/25 04:18:48;0.00;0.00;0.62;0.00;0.00;0.62;2.60;2.10;;;32.90;28.80;;;;;;2263817;61;20451;-54
2023/08/25 04:21:33;0.00;0.00;0.62;0.00;0.00;0.62;2.40;1.80;;;32.90;28.80;;;;;;2263645;61;20446;-51
2023/08/25 04:24:19;0.00;0.00;0.62;0.00;0.00;0.62;3.10;2.30;;;32.90;28.80;;;;;;2263290;61;20376;-54
2023/08/25 04:27:04;0.00;0.00;0.62;0.00;0.00;0.62;3.00;2.27;;;32.90;28.80;;;;;;2264222;61;20360;-56
2023/08/25 04:29:51;0.00;0.00;0.62;0.00;0.00;0.62;2.83;2.30;;;32.90;28.90;;;;;;2263305;61;20364;-60
2023/08/25 04:32:37;0.00;0.00;0.62;0.00;0.00;0.62;2.80;1.90;;;32.90;28.90;;;;;;2264275;61;20356;-54
2023/08/25 04:35:22;0.00;0.00;0.62;0.00;0.00;0.62;2.20;2.00;;;32.90;28.90;;;;;;2264387;61;20481;-53
2023/08/25 04:38:06;0.00;0.00;0.62;0.00;0.00;0.62;2.63;1.93;;;32.90;28.90;;;;;;2264259;61;20368;-55
2023/08/25 04:40:51;0.00;0.00;0.62;0.00;0.00;0.62;2.53;1.90;;;32.90;28.90;;;;;;2264368;61;20472;-56
2023/08/25 04:43:37;0.00;0.00;0.62;0.00;0.00;0.62;2.23;1.97;;;32.90;28.90;;;;;;2264420;61;20387;-56
2023/08/25 04:46:23;0.00;0.00;0.62;0.00;0.00;0.62;2.47;2.17;;;32.90;28.90;;;;;;2264485;61;20978;-56
2023/08/25 04:49:09;0.00;0.00;0.62;0.00;0.00;0.62;2.27;1.70;;;32.90;28.90;;;;;;2264597;61;20372;-57
2023/08/25 04:51:55;0.00;0.00;0.62;0.00;0.00;0.62;3.07;2.00;;;32.90;28.90;;;;;;2264320;61;20391;-52
2023/08/25 04:54:39;0.00;0.00;0.62;0.00;0.00;0.62;2.17;1.73;;;32.90;28.90;;;;;;2264269;61;20905;-57
2023/08/25 04:57:24;0.00;0.00;0.62;0.00;0.00;0.62;5.13;2.30;;;32.90;28.90;;;;;;2264481;61;20891;-53
2023/08/25 05:00:10;0.00;0.00;0.62;0.00;0.00;0.62;2.37;1.97;;;32.90;28.90;;;;;;2264693;61;20454;-52
2023/08/25 05:02:57;0.00;0.00;0.62;0.00;0.00;0.62;2.53;1.73;;;32.80;28.90;;;;;;2264281;61;20407;-57
2023/08/25 05:05:42;0.00;0.00;0.62;0.00;0.00;0.62;2.30;1.90;;;32.90;28.90;;;;;;2264396;61;20834;-54
2023/08/25 05:08:27;0.00;0.00;0.62;0.00;0.00;0.62;1.90;1.60;;;32.80;28.90;;;;;;2264055;61;20442;-55
2023/08/25 05:11:12;0.00;0.00;0.62;0.00;0.00;0.62;3.47;2.07;;;32.80;28.90;;;;;;2264563;61;20357;-55
2023/08/25 05:13:57;0.00;0.00;0.62;0.00;0.00;0.62;2.60;2.00;;;32.80;29.40;;;;;;2263839;61;20423;-57
2023/08/25 05:16:42;0.00;0.00;0.62;0.00;0.00;0.62;2.47;2.20;;;32.80;28.90;;;;;;2264383;61;20460;-56
2023/08/25 05:19:33;0.00;0.00;0.62;0.00;0.00;0.62;3.43;2.17;;;32.80;28.90;;;;;;2264682;61;20424;-55
2023/08/25 05:22:18;0.00;0.00;0.62;0.00;0.00;0.62;2.50;1.97;;;32.80;29.00;;;;;;2263785;61;20368;-54
2023/08/25 05:25:03;0.00;0.00;0.62;0.00;0.00;0.62;3.00;2.10;;;32.80;28.90;;;;;;2264628;61;20498;-53
2023/08/25 05:27:49;0.00;0.00;0.62;0.00;0.00;0.62;3.23;2.10;;;32.80;29.00;;;;;;2264676;61;20411;-56
2023/08/25 05:30:33;0.00;0.00;0.62;0.00;0.00;0.62;2.60;2.03;;;32.80;29.00;;;;;;2264011;61;20357;-56
2023/08/25 05:33:19;0.00;0.00;0.62;0.00;0.00;0.62;3.70;2.30;;;32.80;29.00;;;;;;2264300;61;20431;-56
2023/08/25 05:36:25;0.00;0.00;0.62;0.00;0.00;0.62;2.93;2.23;;;32.80;29.00;;;;;;2264684;61;20388;-53
2023/08/25 05:39:11;0.00;0.00;0.62;0.00;0.00;0.62;4.37;2.07;;;32.80;29.00;;;;;;2264394;61;20368;-56
2023/08/25 05:41:56;0.00;0.00;0.62;0.00;0.00;0.62;2.93;2.03;;;32.80;29.00;;;;;;2264311;61;20400;-55
2023/08/25 05:44:40;0.00;0.00;0.62;0.00;0.00;0.62;2.97;2.17;;;32.80;29.00;;;;;;2263706;61;20805;-55
2023/08/25 05:47:26;0.00;0.00;0.62;0.00;0.00;0.62;6.10;2.73;;;32.80;29.00;;;;;;2264496;61;20417;-55
2023/08/25 05:50:10;0.00;0.00;0.62;0.00;0.00;0.62;3.87;2.30;;;32.80;29.00;;;;;;2264276;61;20390;-55
2023/08/25 05:52:57;0.00;0.00;0.62;0.00;0.00;0.62;2.33;1.97;;;32.80;29.00;;;;;;2264630;61;20368;-56
2023/08/25 05:55:41;0.00;0.00;0.62;0.00;0.00;0.62;2.47;1.93;;;32.80;29.00;;;;;;2264011;61;20816;-56
2023/08/25 05:58:26;0.00;0.00;0.62;0.00;0.00;0.62;3.13;2.00;;;32.80;29.00;;;;;;2264211;61;20418;-55
2023/08/25 06:01:11;0.00;0.00;0.62;0.00;0.00;0.62;3.40;1.93;;;32.80;29.00;;;;;;2264625;61;20384;-57
2023/08/25 06:03:56;0.00;0.00;0.62;0.00;0.00;0.62;2.13;1.80;;;32.80;29.00;;;;;;2264575;61;20457;-55
2023/08/25 06:06:41;0.00;0.00;0.62;0.00;0.00;0.62;2.77;2.10;;;32.80;29.00;;;;;;2264549;61;20368;-53
2023/08/25 06:09:27;0.00;0.00;0.62;0.00;0.00;0.62;2.53;2.10;;;32.70;28.90;;;;;;2264328;61;20377;-57
2023/08/25 06:12:12;0.00;0.00;0.62;0.00;0.00;0.62;3.10;2.23;;;32.80;29.00;;;;;;2264722;61;20384;-54
2023/08/25 06:14:57;0.00;0.00;0.62;0.00;0.00;0.62;2.63;1.70;;;32.80;29.50;;;;;;2264373;61;20407;-56
2023/08/25 06:17:41;0.00;0.00;0.62;0.00;0.00;0.62;2.83;2.27;;;32.80;29.00;;;;;;2264772;61;21016;-51
2023/08/25 06:20:26;0.00;0.00;0.62;0.00;0.00;0.62;2.63;2.20;;;32.80;29.00;;;;;;2264170;61;20391;-53
2023/08/25 06:23:13;0.00;0.00;0.62;0.00;0.00;0.62;3.50;2.17;;;32.80;29.00;;;;;;2264535;61;20422;-58
2023/08/25 06:25:59;0.00;0.00;0.62;0.00;0.00;0.62;4.20;2.50;;;32.80;29.00;;;;;;2264710;61;20395;-55
2023/08/25 06:28:44;0.00;0.00;0.62;0.00;0.00;0.62;3.43;1.90;;;32.80;29.00;;;;;;2264302;61;20368;-57
2023/08/25 06:31:30;0.00;0.00;0.62;0.00;0.00;0.62;3.03;2.27;;;32.80;29.00;;;;;;2264581;61;20348;-54
2023/08/25 06:34:15;0.00;0.00;0.62;0.00;0.00;0.62;3.90;2.00;;;32.80;29.00;;;;;;2264419;61;20438;-54
2023/08/25 06:36:59;0.00;0.00;0.62;0.00;0.00;0.62;2.87;2.17;;;32.80;29.00;;;;;;2264584;61;20410;-56
2023/08/25 06:39:45;0.00;0.00;0.62;0.00;0.00;0.62;2.60;1.93;;;32.80;29.00;;;;;;2264690;61;20364;-52
2023/08/25 06:42:32;0.00;0.00;0.62;0.00;0.00;0.62;2.50;2.07;;;32.80;29.00;;;;;;2264526;61;20364;-56
2023/08/25 06:45:17;0.00;0.00;0.62;0.00;0.00;0.62;2.17;1.97;;;32.80;29.00;;;;;;2264389;61;20384;-54
2023/08/25 06:48:02;0.00;0.00;0.62;0.00;0.00;0.62;3.37;2.00;;;32.80;29.00;;;;;;2264564;61;20968;-54
2023/08/25 06:50:46;0.00;0.00;0.62;0.00;0.00;0.62;2.20;1.87;;;32.80;29.10;;;;;;2264398;61;20753;-54
2023/08/25 06:53:31;0.00;0.00;0.62;0.00;0.00;0.62;2.37;1.93;;;32.80;29.00;;;;;;2264343;61;20368;-61
2023/08/25 06:56:15;0.00;0.00;0.62;0.00;0.00;0.62;2.33;1.77;;;32.80;29.00;;;;;;2264269;61;20387;-51
2023/08/25 06:59:01;0.00;0.00;0.62;0.00;0.00;0.62;2.40;2.00;;;32.80;29.00;;;;;;2263805;61;20372;-54
2023/08/25 07:01:46;0.00;0.00;0.62;0.00;0.00;0.62;4.03;2.40;;;32.80;29.10;;;;;;2263832;61;20380;-55
2023/08/25 07:04:30;0.00;0.00;0.62;0.00;0.00;0.62;3.13;1.57;;;32.70;29.00;;;;;;2263479;61;20418;-52
2023/08/25 07:07:24;0.00;0.00;0.62;0.00;0.00;0.62;2.87;2.13;;;32.80;29.10;;;;;;2264004;61;20409;-52
2023/08/25 07:10:10;0.00;0.00;0.62;0.00;0.00;0.62;2.80;1.90;;;32.80;29.10;;;;;;2263877;61;20418;-57
2023/08/25 07:12:55;0.00;0.00;0.62;0.00;0.00;0.62;2.40;1.97;;;32.80;29.10;;;;;;2264224;61;20387;-52
2023/08/25 07:15:42;0.00;0.00;0.62;0.00;0.00;0.62;2.37;1.87;;;32.80;29.10;;;;;;2264380;61;20465;-57
2023/08/25 07:18:27;0.00;0.00;0.62;0.00;0.00;0.62;2.40;2.20;;;32.80;29.10;;;;;;2264457;61;20380;-57
2023/08/25 07:21:12;0.00;0.00;0.62;0.00;0.00;0.62;3.20;2.00;;;32.80;29.10;;;;;;2264116;61;21050;-53
2023/08/25 07:23:56;0.00;0.00;0.62;0.00;0.00;0.62;2.80;1.97;;;32.80;29.10;;;;;;2264195;61;20372;-54
2023/08/25 07:26:41;0.00;0.00;0.62;0.00;0.00;0.62;2.10;1.80;;;32.80;29.10;;;;;;2264366;61;20387;-52
2023/08/25 07:29:25;0.00;0.00;0.62;0.00;0.00;0.62;2.40;2.10;;;32.80;29.10;;;;;;2264440;61;20422;-55
2023/08/25 07:32:12;0.00;0.00;0.62;0.00;0.00;0.62;3.40;2.70;;;32.80;29.10;;;;;;2264222;61;20403;-55
2023/08/25 07:34:57;0.00;0.00;0.62;0.00;0.00;0.62;2.57;2.00;;;32.80;29.10;;;;;;2262913;61;20438;-48
2023/08/25 07:37:41;0.00;0.00;0.62;0.00;0.00;0.62;2.73;2.07;;;32.80;29.10;;;;;;2264035;61;20415;-49
2023/08/25 07:40:26;0.00;0.00;0.62;0.00;0.00;0.62;3.60;2.17;;;32.80;29.20;;;;;;2264122;61;20907;-51
2023/08/25 07:43:11;0.00;0.00;0.62;0.00;0.00;0.62;2.73;1.83;;;32.80;29.20;;;;;;2263430;61;20412;-52
2023/08/25 07:45:55;0.00;0.00;0.62;0.00;0.00;0.62;2.20;1.90;;;32.80;29.20;;;;;;2264059;61;20395;-55
2023/08/25 07:48:43;0.00;0.00;0.62;0.00;0.00;0.62;3.30;2.20;;;32.80;29.80;;;;;;2264042;61;20414;-48
2023/08/25 07:51:27;0.00;0.00;0.62;0.00;0.00;0.62;2.50;2.10;;;32.80;29.20;;;;;;2263615;61;20360;-51
2023/08/25 07:54:12;0.00;0.00;0.62;0.00;0.00;0.62;2.50;2.03;;;32.80;29.20;;;;;;2263675;61;20414;-54
2023/08/25 07:56:56;0.00;0.00;0.62;0.00;0.00;0.62;2.73;2.20;;;32.80;29.20;;;;;;2263420;61;20442;-56
2023/08/25 07:59:41;0.00;0.00;0.62;0.00;0.00;0.62;2.83;1.97;;;32.80;29.30;;;;;;2263833;61;20367;-50
2023/08/25 08:02:26;0.00;0.00;0.62;0.00;0.00;0.62;2.87;2.10;;;32.80;29.30;;;;;;2264363;61;20368;-55
2023/08/25 08:05:14;0.00;0.00;0.62;0.00;0.00;0.62;3.03;2.33;;;32.80;29.30;;;;;;2263197;61;20384;-52
2023/08/25 08:07:58;0.00;0.00;0.62;0.00;0.00;0.62;3.00;1.70;;;32.80;29.30;;;;;;2264716;61;20422;-53
2023/08/25 08:10:43;0.00;0.00;0.62;0.00;0.00;0.62;2.00;1.60;;;32.80;29.30;;;;;;2264618;61;20422;-55
2023/08/25 08:13:28;0.00;0.00;0.62;0.00;0.00;0.62;2.47;1.63;;;32.80;29.30;;;;;;2264050;61;20421;-54
2023/08/25 08:16:13;0.00;0.00;0.62;0.00;0.00;0.62;3.53;2.40;;;32.80;29.40;;;;;;2264455;61;20472;-55
2023/08/25 08:18:58;0.00;0.00;0.62;0.00;0.00;0.62;2.50;2.10;;;32.80;29.40;;;;;;2264159;61;20364;-54
2023/08/25 08:21:44;0.00;0.00;0.62;0.00;0.00;0.62;2.93;2.00;;;32.80;29.40;;;;;;2264392;61;20388;-51
2023/08/25 08:24:29;0.00;0.00;0.62;0.00;0.00;0.62;5.63;2.33;;;32.80;29.40;;;;;;2264194;61;20421;-55
2023/08/25 08:27:15;0.00;0.00;0.62;0.00;0.00;0.62;2.73;2.07;;;32.80;29.40;;;;;;2264076;61;20371;-52
2023/08/25 08:30:00;0.00;0.00;0.62;0.00;0.00;0.62;2.53;2.13;;;32.80;29.40;;;;;;2264677;61;20360;-51
2023/08/25 08:32:45;0.00;0.00;0.62;0.00;0.00;0.62;2.50;1.87;;;32.80;29.40;;;;;;2264546;61;20414;-55
2023/08/25 08:35:30;0.00;0.00;0.62;0.00;0.00;0.62;2.23;1.90;;;32.80;29.50;;;;;;2264345;61;20430;-51
2023/08/25 08:38:16;0.00;0.00;0.62;0.00;0.00;0.62;3.30;1.90;;;32.80;29.50;;;;;;2264527;61;20523;-51
2023/08/25 08:41:04;0.00;0.00;0.62;0.00;0.00;0.62;3.13;2.10;;;32.80;29.50;;;;;;2263856;61;20408;-57
2023/08/25 08:43:52;0.00;0.00;0.62;0.00;0.00;0.62;2.40;2.20;;;32.80;29.50;;;;;;2264112;61;20912;-53
2023/08/25 08:46:39;0.00;0.00;0.62;0.00;0.00;0.62;2.60;2.00;;;32.80;29.50;;;;;;2264425;61;20388;-51
2023/08/25 08:49:26;0.00;0.00;0.62;0.00;0.00;0.62;3.20;2.20;;;32.90;29.60;;;;;;2263935;61;20364;-56
2023/08/25 08:52:11;0.00;0.00;0.62;0.00;0.00;0.62;2.97;2.30;;;32.90;29.60;;;;;;2264242;61;20368;-55
2023/08/25 08:54:58;0.00;0.00;0.62;0.00;0.00;0.62;4.70;2.03;;;32.90;29.60;;;;;;2264100;61;20411;-53
2023/08/25 08:57:43;0.00;0.00;0.62;0.00;0.00;0.62;2.20;1.77;;;32.90;29.60;;;;;;2264246;61;21003;-63
2023/08/25 09:00:28;0.00;0.00;0.62;0.00;0.00;0.62;2.77;2.20;;;32.90;29.60;;;;;;2264407;61;20924;-51
2023/08/25 09:03:17;0.00;0.00;0.62;0.00;0.00;0.62;2.30;1.77;;;32.90;29.60;;;;;;2263589;61;20482;-55
2023/08/25 09:06:03;0.00;0.00;0.62;0.00;0.00;0.62;2.10;1.80;;;32.90;29.60;;;;;;2264384;61;20443;-53
2023/08/25 09:08:50;0.00;0.00;0.62;0.00;0.00;0.62;2.13;1.83;;;32.90;29.60;;;;;;2264463;61;20782;-53
2023/08/25 09:11:36;0.00;0.00;0.62;0.00;0.00;0.62;2.27;1.87;;;32.90;29.60;;;;;;2263747;61;20892;-53
2023/08/25 09:14:26;0.00;0.00;0.62;0.00;0.00;0.62;2.17;1.90;;;32.90;29.60;;;;;;2264038;61;20396;-50
2023/08/25 09:17:16;0.00;0.00;0.62;0.00;0.00;0.62;2.83;2.00;;;32.90;29.60;;;;;;2264199;61;20468;-55
2023/08/25 09:20:08;0.00;0.00;0.62;0.00;0.00;0.62;2.53;2.17;;;32.90;29.60;;;;;;2264376;61;20749;-52
2023/08/25 09:22:55;0.00;0.00;0.62;0.00;0.00;0.62;2.93;2.30;;;32.90;29.70;;;;;;2264389;61;20414;-50
2023/08/25 09:25:41;0.00;0.00;0.62;0.00;0.00;0.62;2.23;1.50;;;32.90;29.70;;;;;;2264014;61;20854;-49
2023/08/25 09:28:27;0.00;0.00;0.62;0.00;0.00;0.62;2.10;1.80;;;32.90;29.70;;;;;;2264507;61;20364;-55
2023/08/25 09:31:21;0.00;0.00;0.62;0.00;0.00;0.62;2.50;2.00;;;32.90;29.70;;;;;;2264214;61;20365;-56
2023/08/25 09:34:08;0.00;0.00;0.62;0.00;0.00;0.62;2.33;1.70;;;32.90;29.70;;;;;;2263579;61;20364;-55
2023/08/25 09:36:55;0.00;0.00;0.62;0.00;0.00;0.62;2.43;1.93;;;32.90;29.70;;;;;;2264554;61;20892;-50
2023/08/25 09:39:43;0.00;0.00;0.62;0.00;0.00;0.62;2.20;1.57;;;32.90;29.70;;;;;;2264329;61;20676;-54
2023/08/25 09:42:28;0.00;0.00;0.62;0.00;0.00;0.62;2.77;1.70;;;33.00;29.80;;;;;;2264145;61;20391;-49
2023/08/25 09:45:15;0.00;0.00;0.62;0.00;0.00;0.62;2.17;1.70;;;33.00;29.80;;;;;;2263981;61;20445;-56
2023/08/25 09:48:08;0.00;0.00;0.62;0.00;0.00;0.62;2.10;1.50;;;33.00;29.80;;;;;;2263950;61;20839;-57
2023/08/25 09:50:52;0.00;0.00;0.62;0.00;0.00;0.62;2.23;1.50;;;33.00;29.80;;;;;;2264187;61;20784;-54
2023/08/25 09:53:39;0.00;0.00;0.62;0.00;0.00;0.62;3.70;1.93;;;33.00;29.80;;;;;;2263884;61;20364;-54
2023/08/25 09:56:24;0.00;0.00;0.62;0.00;0.00;0.62;1.70;1.33;;;33.00;29.80;;;;;;2263799;61;20384;-54
2023/08/25 09:59:11;0.00;0.00;0.62;0.00;0.00;0.62;2.70;2.00;;;33.00;29.80;;;;;;2264176;61;20548;-54
2023/08/25 10:01:58;0.00;0.00;0.62;0.00;0.00;0.62;2.40;1.70;;;33.00;29.80;;;;;;2263733;61;20384;-53
2023/08/25 10:04:43;0.00;0.00;0.62;0.00;0.00;0.62;2.27;1.90;;;33.00;29.80;;;;;;2263548;61;20384;-51
2023/08/25 10:07:28;0.00;0.00;0.62;0.00;0.00;0.62;2.00;1.80;;;33.10;29.90;;;;;;2264071;61;20363;-51
2023/08/25 10:10:13;0.00;0.00;0.62;0.00;0.00;0.62;3.27;1.73;;;33.10;29.80;;;;;;2263365;61;20495;-50
2023/08/25 10:12:58;0.00;0.00;0.62;0.00;0.00;0.62;3.33;2.10;;;33.10;29.80;;;;;;2263406;61;20852;-52
2023/08/25 10:15:45;0.00;0.00;0.62;0.00;0.00;0.62;3.00;1.60;;;33.10;29.80;;;;;;2264335;61;20388;-55
2023/08/25 10:18:39;0.00;0.00;0.62;0.00;0.00;0.62;4.40;1.60;;;33.10;29.80;;;;;;2263963;61;20763;-54
2023/08/25 10:21:26;0.00;0.00;0.62;0.00;0.00;0.62;2.60;1.77;;;33.10;29.90;;;;;;2264152;61;20420;-56
2023/08/25 10:24:13;0.00;0.00;0.62;0.00;0.00;0.62;2.50;1.63;;;33.10;29.80;;;;;;2263735;61;21027;-55
2023/08/25 10:26:58;0.00;0.00;0.62;0.00;0.00;0.62;1.80;1.43;;;33.10;29.80;;;;;;2264009;61;20386;-51
2023/08/25 10:29:42;0.00;0.00;0.62;0.00;0.00;0.62;2.30;1.80;;;33.10;29.80;;;;;;2264432;61;20426;-54
2023/08/25 10:32:49;0.00;0.00;0.62;0.00;0.00;0.62;2.10;1.60;;;33.10;29.80;;;;;;2263594;61;20964;-51
2023/08/25 10:35:40;0.00;0.00;0.62;0.00;0.00;0.62;2.80;1.90;;;33.10;29.80;;;;;;2264050;61;20778;-51
2023/08/25 10:38:38;0.00;0.00;0.62;0.00;0.00;0.62;2.50;1.60;;;33.10;29.80;;;;;;2264417;61;20364;-55
2023/08/25 10:41:24;0.00;0.00;0.62;0.00;0.00;0.62;2.10;1.90;;;33.10;29.80;;;;;;2263265;61;20384;-49
2023/08/25 10:44:18;0.00;0.00;0.62;0.00;0.00;0.62;2.70;1.63;;;33.10;29.80;;;;;;2263884;61;20368;-51
2023/08/25 10:47:04;0.00;0.00;0.62;0.00;0.00;0.62;2.47;1.83;;;33.10;29.80;;;;;;2262930;61;20956;-54
2023/08/25 10:49:53;0.00;0.00;0.62;0.00;0.00;0.62;2.53;1.50;;;33.10;29.80;;;;;;2264210;61;20486;-53
2023/08/25 10:52:46;0.00;0.00;0.62;0.00;0.00;0.62;2.37;1.97;;;33.10;29.80;;;;;;2264366;61;20353;-53
2023/08/25 10:55:36;0.00;0.00;0.62;0.00;0.00;0.62;2.23;1.90;;;33.10;29.80;;;;;;2263457;61;20472;-53